sensor_id;sensor_type;location;lat;lon;timestamp;P1;durP1;ratioP1;P2;durP2;ratioP2
11241;SDS011;5678;52.370;9.006;2023-02-28T00:01:23;0.93;;;0.93;;
11241;SDS011;5678;52.370;9.006;2023-02-28T00:03:53;0.90;;;0.90;;
11241;SDS011;5678;52.370;9.006;2023-02-28T00:06:22;1.13;;;1.13;;
11241;SDS011;5678;52.370;9.006;2023-02-28T00:08:50;0.87;;;0.87;;
11241;SDS011;5678;52.370;9.006;2023-02-28T00:11:18;0.83;;;0.83;;
11241;SDS011;5678;52.370;9.006;2023-02-28T00:13:46;1.30;;;1.30;;
11241;SDS011;5678;52.370;9.006;2023-02-28T00:16:16;0.90;;;0.90;;
11241;SDS011;5678;52.370;9.006;2023-02-28T00:18:45;0.97;;;0.97;;
11241;SDS011;5678;52.370;9.006;2023-02-28T00:21:16;1.10;;;1.10;;
11241;SDS011;5678;52.370;9.006;2023-02-28T00:23:45;1.00;;;1.00;;
11241;SDS011;5678;52.370;9.006;2023-02-28T00:26:13;1.10;;;1.10;;
11241;SDS011;5678;52.370;9.006;2023-02-28T00:28:41;1.03;;;1.03;;
11241;SDS011;5678;52.370;9.006;2023-02-28T00:31:09;0.97;;;0.97;;
11241;SDS011;5678;52.370;9.006;2023-02-28T00:33:38;1.50;;;1.50;;
11241;SDS011;5678;52.370;9.006;2023-02-28T00:36:06;1.17;;;1.17;;
11241;SDS011;5678;52.370;9.006;2023-02-28T00:38:37;1.00;;;1.00;;
11241;SDS011;5678;52.370;9.006;2023-02-28T00:41:06;1.30;;;1.30;;
11241;SDS011;5678;52.370;9.006;2023-02-28T00:43:35;1.10;;;1.10;;
11241;SDS011;5678;52.370;9.006;2023-02-28T00:46:04;1.40;;;1.40;;
11241;SDS011;5678;52.370;9.006;2023-02-28T00:48:33;0.97;;;0.97;;
11241;SDS011;5678;52.370;9.006;2023-02-28T00:51:01;0.90;;;0.90;;
11241;SDS011;5678;52.370;9.006;2023-02-28T00:53:29;1.10;;;1.10;;
11241;SDS011;5678;52.370;9.006;2023-02-28T00:56:00;0.80;;;0.80;;
11241;SDS011;5678;52.370;9.006;2023-02-28T00:58:28;1.40;;;1.40;;
11241;SDS011;5678;52.370;9.006;2023-02-28T01:00:56;1.00;;;1.00;;
11241;SDS011;5678;52.370;9.006;2023-02-28T01:03:24;1.00;;;1.00;;
11241;SDS011;5678;52.370;9.006;2023-02-28T01:05:52;1.07;;;1.07;;
11241;SDS011;5678;52.370;9.006;2023-02-28T01:08:20;1.20;;;1.20;;
11241;SDS011;5678;52.370;9.006;2023-02-28T01:10:48;1.20;;;1.20;;
11241;SDS011;5678;52.370;9.006;2023-02-28T01:13:17;0.93;;;0.93;;
11241;SDS011;5678;52.370;9.006;2023-02-28T01:15:46;1.17;;;1.17;;
11241;SDS011;5678;52.370;9.006;2023-02-28T01:18:18;1.03;;;1.03;;
11241;SDS011;5678;52.370;9.006;2023-02-28T01:20:46;1.20;;;1.20;;
11241;SDS011;5678;52.370;9.006;2023-02-28T01:23:14;1.40;;;1.40;;
11241;SDS011;5678;52.370;9.006;2023-02-28T01:25:42;1.10;;;1.10;;
11241;SDS011;5678;52.370;9.006;2023-02-28T01:28:10;0.90;;;0.90;;
11241;SDS011;5678;52.370;9.006;2023-02-28T01:30:40;1.20;;;1.20;;
11241;SDS011;5678;52.370;9.006;2023-02-28T01:33:08;1.47;;;1.47;;
11241;SDS011;5678;52.370;9.006;2023-02-28T01:35:36;1.20;;;1.20;;
11241;SDS011;5678;52.370;9.006;2023-02-28T01:38:04;1.23;;;1.23;;
11241;SDS011;5678;52.370;9.006;2023-02-28T01:40:47;1.20;;;1.20;;
11241;SDS011;5678;52.370;9.006;2023-02-28T01:43:17;1.00;;;1.00;;
11241;SDS011;5678;52.370;9.006;2023-02-28T01:45:50;1.20;;;1.20;;
11241;SDS011;5678;52.370;9.006;2023-02-28T01:48:18;1.00;;;1.00;;
11241;SDS011;5678;52.370;9.006;2023-02-28T01:50:48;1.23;;;1.23;;
11241;SDS011;5678;52.370;9.006;2023-02-28T01:53:17;1.27;;;1.27;;
11241;SDS011;5678;52.370;9.006;2023-02-28T01:55:50;1.27;;;1.27;;
11241;SDS011;5678;52.370;9.006;2023-02-28T01:58:20;1.30;;;1.30;;
11241;SDS011;5678;52.370;9.006;2023-02-28T02:00:49;1.00;;;1.00;;
11241;SDS011;5678;52.370;9.006;2023-02-28T02:03:18;1.20;;;1.20;;
11241;SDS011;5678;52.370;9.006;2023-02-28T02:05:47;0.97;;;0.97;;
11241;SDS011;5678;52.370;9.006;2023-02-28T02:08:16;1.10;;;1.10;;
11241;SDS011;5678;52.370;9.006;2023-02-28T02:10:47;1.37;;;1.37;;
11241;SDS011;5678;52.370;9.006;2023-02-28T02:13:23;1.43;;;1.43;;
11241;SDS011;5678;52.370;9.006;2023-02-28T02:16:02;1.40;;;1.40;;
11241;SDS011;5678;52.370;9.006;2023-02-28T02:18:40;1.57;;;1.57;;
11241;SDS011;5678;52.370;9.006;2023-02-28T02:21:20;1.20;;;1.20;;
11241;SDS011;5678;52.370;9.006;2023-02-28T02:24:13;1.07;;;1.07;;
11241;SDS011;5678;52.370;9.006;2023-02-28T02:27:15;1.00;;;1.00;;
11241;SDS011;5678;52.370;9.006;2023-02-28T02:33:04;1.30;;;1.30;;
11241;SDS011;5678;52.370;9.006;2023-02-28T02:35:46;1.20;;;1.20;;
11241;SDS011;5678;52.370;9.006;2023-02-28T02:38:20;1.30;;;1.30;;
11241;SDS011;5678;52.370;9.006;2023-02-28T02:40:59;1.10;;;1.10;;
11241;SDS011;5678;52.370;9.006;2023-02-28T02:43:36;1.17;;;1.17;;
11241;SDS011;5678;52.370;9.006;2023-02-28T02:46:12;1.20;;;1.20;;
11241;SDS011;5678;52.370;9.006;2023-02-28T02:48:44;1.27;;;1.27;;
11241;SDS011;5678;52.370;9.006;2023-02-28T02:51:15;1.17;;;1.17;;
11241;SDS011;5678;52.370;9.006;2023-02-28T02:53:46;1.20;;;1.20;;
11241;SDS011;5678;52.370;9.006;2023-02-28T02:56:18;1.30;;;1.30;;
11241;SDS011;5678;52.370;9.006;2023-02-28T02:58:51;1.20;;;1.20;;
11241;SDS011;5678;52.370;9.006;2023-02-28T03:01:23;1.17;;;1.17;;
11241;SDS011;5678;52.370;9.006;2023-02-28T03:03:55;1.30;;;1.30;;
11241;SDS011;5678;52.370;9.006;2023-02-28T03:06:26;1.27;;;1.27;;
11241;SDS011;5678;52.370;9.006;2023-02-28T03:08:54;1.27;;;1.27;;
11241;SDS011;5678;52.370;9.006;2023-02-28T03:11:22;1.10;;;1.10;;
11241;SDS011;5678;52.370;9.006;2023-02-28T03:14:03;1.63;;;1.63;;
11241;SDS011;5678;52.370;9.006;2023-02-28T03:16:55;1.00;;;1.00;;
11241;SDS011;5678;52.370;9.006;2023-02-28T03:19:47;1.20;;;1.20;;
11241;SDS011;5678;52.370;9.006;2023-02-28T03:22:36;1.10;;;1.10;;
11241;SDS011;5678;52.370;9.006;2023-02-28T03:25:17;1.30;;;1.30;;
11241;SDS011;5678;52.370;9.006;2023-02-28T03:27:54;1.30;;;1.30;;
11241;SDS011;5678;52.370;9.006;2023-02-28T03:30:35;1.20;;;1.20;;
11241;SDS011;5678;52.370;9.006;2023-02-28T03:33:09;1.23;;;1.23;;
11241;SDS011;5678;52.370;9.006;2023-02-28T03:35:41;1.10;;;1.10;;
11241;SDS011;5678;52.370;9.006;2023-02-28T03:38:15;1.40;;;1.40;;
11241;SDS011;5678;52.370;9.006;2023-02-28T03:40:48;1.33;;;1.33;;
11241;SDS011;5678;52.370;9.006;2023-02-28T03:43:20;1.40;;;1.40;;
11241;SDS011;5678;52.370;9.006;2023-02-28T03:45:52;1.00;;;1.00;;
11241;SDS011;5678;52.370;9.006;2023-02-28T03:48:23;1.30;;;1.30;;
11241;SDS011;5678;52.370;9.006;2023-02-28T03:50:59;1.30;;;1.30;;
11241;SDS011;5678;52.370;9.006;2023-02-28T03:53:30;1.20;;;1.20;;
11241;SDS011;5678;52.370;9.006;2023-02-28T03:56:03;1.57;;;1.57;;
11241;SDS011;5678;52.370;9.006;2023-02-28T03:58:37;1.33;;;1.33;;
11241;SDS011;5678;52.370;9.006;2023-02-28T04:01:12;1.10;;;1.10;;
11241;SDS011;5678;52.370;9.006;2023-02-28T04:03:47;1.27;;;1.27;;
11241;SDS011;5678;52.370;9.006;2023-02-28T04:06:17;1.40;;;1.40;;
11241;SDS011;5678;52.370;9.006;2023-02-28T04:08:48;1.20;;;1.20;;
11241;SDS011;5678;52.370;9.006;2023-02-28T04:11:18;1.20;;;1.20;;
11241;SDS011;5678;52.370;9.006;2023-02-28T04:13:49;1.40;;;1.40;;
11241;SDS011;5678;52.370;9.006;2023-02-28T04:16:18;1.43;;;1.43;;
11241;SDS011;5678;52.370;9.006;2023-02-28T04:19:00;1.20;;;1.20;;
11241;SDS011;5678;52.370;9.006;2023-02-28T04:21:31;1.07;;;1.07;;
11241;SDS011;5678;52.370;9.006;2023-02-28T04:24:01;1.30;;;1.30;;
11241;SDS011;5678;52.370;9.006;2023-02-28T04:26:30;1.30;;;1.30;;
11241;SDS011;5678;52.370;9.006;2023-02-28T04:28:59;1.40;;;1.40;;
11241;SDS011;5678;52.370;9.006;2023-02-28T04:31:27;1.30;;;1.30;;
11241;SDS011;5678;52.370;9.006;2023-02-28T04:33:56;1.10;;;1.10;;
11241;SDS011;5678;52.370;9.006;2023-02-28T04:36:24;1.40;;;1.40;;
11241;SDS011;5678;52.370;9.006;2023-02-28T04:38:52;1.20;;;1.20;;
11241;SDS011;5678;52.370;9.006;2023-02-28T04:41:22;1.40;;;1.40;;
11241;SDS011;5678;52.370;9.006;2023-02-28T04:43:50;1.23;;;1.23;;
11241;SDS011;5678;52.370;9.006;2023-02-28T04:46:18;1.10;;;1.10;;
11241;SDS011;5678;52.370;9.006;2023-02-28T04:48:47;1.40;;;1.40;;
11241;SDS011;5678;52.370;9.006;2023-02-28T04:51:16;1.25;;;1.25;;
11241;SDS011;5678;52.370;9.006;2023-02-28T04:53:45;1.30;;;1.30;;
11241;SDS011;5678;52.370;9.006;2023-02-28T04:56:14;1.30;;;1.30;;
11241;SDS011;5678;52.370;9.006;2023-02-28T04:58:45;1.20;;;1.20;;
11241;SDS011;5678;52.370;9.006;2023-02-28T05:01:17;1.20;;;1.20;;
11241;SDS011;5678;52.370;9.006;2023-02-28T05:03:48;1.10;;;1.10;;
11241;SDS011;5678;52.370;9.006;2023-02-28T05:06:17;1.40;;;1.40;;
11241;SDS011;5678;52.370;9.006;2023-02-28T05:08:46;1.27;;;1.27;;
11241;SDS011;5678;52.370;9.006;2023-02-28T05:11:17;1.20;;;1.20;;
11241;SDS011;5678;52.370;9.006;2023-02-28T05:13:48;1.15;;;1.15;;
11241;SDS011;5678;52.370;9.006;2023-02-28T05:16:16;1.10;;;1.10;;
11241;SDS011;5678;52.370;9.006;2023-02-28T05:18:46;1.08;;;1.08;;
11241;SDS011;5678;52.370;9.006;2023-02-28T05:21:22;1.37;;;1.37;;
11241;SDS011;5678;52.370;9.006;2023-02-28T05:23:53;1.23;;;1.23;;
11241;SDS011;5678;52.370;9.006;2023-02-28T05:26:22;1.43;;;1.43;;
11241;SDS011;5678;52.370;9.006;2023-02-28T05:28:51;1.20;;;1.20;;
11241;SDS011;5678;52.370;9.006;2023-02-28T05:31:19;1.80;;;1.80;;
11241;SDS011;5678;52.370;9.006;2023-02-28T05:33:47;1.75;;;1.75;;
11241;SDS011;5678;52.370;9.006;2023-02-28T05:36:15;1.40;;;1.40;;
11241;SDS011;5678;52.370;9.006;2023-02-28T05:38:45;1.40;;;1.40;;
11241;SDS011;5678;52.370;9.006;2023-02-28T05:41:14;1.23;;;1.23;;
11241;SDS011;5678;52.370;9.006;2023-02-28T05:43:42;1.60;;;1.60;;
11241;SDS011;5678;52.370;9.006;2023-02-28T05:46:12;1.30;;;1.30;;
11241;SDS011;5678;52.370;9.006;2023-02-28T05:48:41;1.73;;;1.73;;
11241;SDS011;5678;52.370;9.006;2023-02-28T05:51:12;1.45;;;1.45;;
11241;SDS011;5678;52.370;9.006;2023-02-28T05:53:40;1.50;;;1.50;;
11241;SDS011;5678;52.370;9.006;2023-02-28T05:56:08;1.40;;;1.40;;
11241;SDS011;5678;52.370;9.006;2023-02-28T05:58:36;1.47;;;1.47;;
11241;SDS011;5678;52.370;9.006;2023-02-28T06:03:52;1.25;;;1.25;;
11241;SDS011;5678;52.370;9.006;2023-02-28T06:06:20;1.42;;;1.42;;
11241;SDS011;5678;52.370;9.006;2023-02-28T06:08:47;1.30;;;1.30;;
11241;SDS011;5678;52.370;9.006;2023-02-28T06:11:28;1.40;;;1.40;;
11241;SDS011;5678;52.370;9.006;2023-02-28T06:13:58;1.20;;;1.20;;
11241;SDS011;5678;52.370;9.006;2023-02-28T06:16:29;1.40;;;1.40;;
11241;SDS011;5678;52.370;9.006;2023-02-28T06:18:58;1.40;;;1.40;;
11241;SDS011;5678;52.370;9.006;2023-02-28T06:21:28;1.23;;;1.23;;
11241;SDS011;5678;52.370;9.006;2023-02-28T06:23:57;1.25;;;1.25;;
11241;SDS011;5678;52.370;9.006;2023-02-28T06:26:25;1.27;;;1.27;;
11241;SDS011;5678;52.370;9.006;2023-02-28T06:28:53;1.15;;;1.15;;
11241;SDS011;5678;52.370;9.006;2023-02-28T06:31:22;1.33;;;1.33;;
11241;SDS011;5678;52.370;9.006;2023-02-28T06:33:53;1.40;;;1.40;;
11241;SDS011;5678;52.370;9.006;2023-02-28T06:36:21;1.00;;;1.00;;
11241;SDS011;5678;52.370;9.006;2023-02-28T06:38:49;1.60;;;1.60;;
11241;SDS011;5678;52.370;9.006;2023-02-28T06:41:21;1.20;;;1.20;;
11241;SDS011;5678;52.370;9.006;2023-02-28T06:43:50;1.25;;;1.25;;
11241;SDS011;5678;52.370;9.006;2023-02-28T06:46:18;1.20;;;1.20;;
11241;SDS011;5678;52.370;9.006;2023-02-28T06:48:46;1.30;;;1.30;;
11241;SDS011;5678;52.370;9.006;2023-02-28T06:51:16;1.40;;;1.40;;
11241;SDS011;5678;52.370;9.006;2023-02-28T06:53:46;1.33;;;1.33;;
11241;SDS011;5678;52.370;9.006;2023-02-28T06:56:14;1.40;;;1.40;;
11241;SDS011;5678;52.370;9.006;2023-02-28T06:58:45;1.45;;;1.45;;
11241;SDS011;5678;52.370;9.006;2023-02-28T07:01:14;1.08;;;1.08;;
11241;SDS011;5678;52.370;9.006;2023-02-28T07:03:42;1.30;;;1.30;;
11241;SDS011;5678;52.370;9.006;2023-02-28T07:06:10;1.20;;;1.20;;
11241;SDS011;5678;52.370;9.006;2023-02-28T07:08:39;1.37;;;1.37;;
11241;SDS011;5678;52.370;9.006;2023-02-28T07:11:07;1.20;;;1.20;;
11241;SDS011;5678;52.370;9.006;2023-02-28T07:13:35;1.40;;;1.40;;
11241;SDS011;5678;52.370;9.006;2023-02-28T07:16:04;1.20;;;1.20;;
11241;SDS011;5678;52.370;9.006;2023-02-28T07:18:35;1.57;;;1.57;;
11241;SDS011;5678;52.370;9.006;2023-02-28T07:21:03;1.47;;;1.47;;
11241;SDS011;5678;52.370;9.006;2023-02-28T07:23:32;1.30;;;1.30;;
11241;SDS011;5678;52.370;9.006;2023-02-28T07:26:02;1.47;;;1.47;;
11241;SDS011;5678;52.370;9.006;2023-02-28T07:28:30;1.10;;;1.10;;
11241;SDS011;5678;52.370;9.006;2023-02-28T07:31:02;1.73;;;1.73;;
11241;SDS011;5678;52.370;9.006;2023-02-28T07:33:31;1.20;;;1.20;;
11241;SDS011;5678;52.370;9.006;2023-02-28T07:36:00;1.30;;;1.30;;
11241;SDS011;5678;52.370;9.006;2023-02-28T07:38:28;1.50;;;1.50;;
11241;SDS011;5678;52.370;9.006;2023-02-28T07:40:56;1.40;;;1.40;;
11241;SDS011;5678;52.370;9.006;2023-02-28T07:43:25;1.20;;;1.20;;
11241;SDS011;5678;52.370;9.006;2023-02-28T07:45:53;1.20;;;1.20;;
11241;SDS011;5678;52.370;9.006;2023-02-28T07:48:21;1.47;;;1.47;;
11241;SDS011;5678;52.370;9.006;2023-02-28T07:50:54;1.27;;;1.27;;
11241;SDS011;5678;52.370;9.006;2023-02-28T07:53:22;1.20;;;1.20;;
11241;SDS011;5678;52.370;9.006;2023-02-28T07:55:50;1.37;;;1.37;;
11241;SDS011;5678;52.370;9.006;2023-02-28T07:58:22;1.20;;;1.20;;
11241;SDS011;5678;52.370;9.006;2023-02-28T08:00:51;1.00;;;1.00;;
11241;SDS011;5678;52.370;9.006;2023-02-28T08:03:20;1.30;;;1.30;;
11241;SDS011;5678;52.370;9.006;2023-02-28T08:05:49;1.37;;;1.37;;
11241;SDS011;5678;52.370;9.006;2023-02-28T08:08:18;1.30;;;1.30;;
11241;SDS011;5678;52.370;9.006;2023-02-28T08:10:46;1.00;;;1.00;;
11241;SDS011;5678;52.370;9.006;2023-02-28T08:13:14;1.20;;;1.20;;
11241;SDS011;5678;52.370;9.006;2023-02-28T08:15:42;1.07;;;1.07;;
11241;SDS011;5678;52.370;9.006;2023-02-28T08:18:12;1.30;;;1.30;;
11241;SDS011;5678;52.370;9.006;2023-02-28T08:20:40;1.30;;;1.30;;
11241;SDS011;5678;52.370;9.006;2023-02-28T08:23:08;1.07;;;1.07;;
11241;SDS011;5678;52.370;9.006;2023-02-28T08:25:36;1.10;;;1.10;;
11241;SDS011;5678;52.370;9.006;2023-02-28T08:28:04;1.00;;;1.00;;
11241;SDS011;5678;52.370;9.006;2023-02-28T08:30:32;1.10;;;1.10;;
11241;SDS011;5678;52.370;9.006;2023-02-28T08:33:00;0.90;;;0.90;;
11241;SDS011;5678;52.370;9.006;2023-02-28T08:35:29;0.77;;;0.77;;
11241;SDS011;5678;52.370;9.006;2023-02-28T08:37:57;1.00;;;1.00;;
11241;SDS011;5678;52.370;9.006;2023-02-28T08:40:25;1.00;;;1.00;;
11241;SDS011;5678;52.370;9.006;2023-02-28T08:42:53;0.87;;;0.87;;
11241;SDS011;5678;52.370;9.006;2023-02-28T08:45:21;0.97;;;0.97;;
11241;SDS011;5678;52.370;9.006;2023-02-28T08:47:49;0.60;;;0.60;;
11241;SDS011;5678;52.370;9.006;2023-02-28T08:50:18;0.60;;;0.60;;
11241;SDS011;5678;52.370;9.006;2023-02-28T08:52:47;0.57;;;0.57;;
11241;SDS011;5678;52.370;9.006;2023-02-28T08:55:15;0.60;;;0.60;;
11241;SDS011;5678;52.370;9.006;2023-02-28T08:57:43;0.60;;;0.60;;
11241;SDS011;5678;52.370;9.006;2023-02-28T09:00:12;0.30;;;0.30;;
11241;SDS011;5678;52.370;9.006;2023-02-28T09:02:40;0.40;;;0.40;;
11241;SDS011;5678;52.370;9.006;2023-02-28T09:05:09;0.63;;;0.63;;
11241;SDS011;5678;52.370;9.006;2023-02-28T09:07:37;0.50;;;0.50;;
11241;SDS011;5678;52.370;9.006;2023-02-28T09:10:07;0.47;;;0.47;;
11241;SDS011;5678;52.370;9.006;2023-02-28T09:12:36;0.50;;;0.50;;
11241;SDS011;5678;52.370;9.006;2023-02-28T09:15:04;0.40;;;0.40;;
11241;SDS011;5678;52.370;9.006;2023-02-28T09:17:33;0.40;;;0.40;;
11241;SDS011;5678;52.370;9.006;2023-02-28T09:20:01;0.30;;;0.30;;
11241;SDS011;5678;52.370;9.006;2023-02-28T09:22:29;0.40;;;0.40;;
11241;SDS011;5678;52.370;9.006;2023-02-28T09:24:57;0.50;;;0.50;;
11241;SDS011;5678;52.370;9.006;2023-02-28T09:27:26;0.40;;;0.40;;
11241;SDS011;5678;52.370;9.006;2023-02-28T09:29:54;0.50;;;0.50;;
11241;SDS011;5678;52.370;9.006;2023-02-28T09:32:22;0.30;;;0.30;;
11241;SDS011;5678;52.370;9.006;2023-02-28T09:34:49;0.30;;;0.30;;
11241;SDS011;5678;52.370;9.006;2023-02-28T09:37:17;0.30;;;0.30;;
11241;SDS011;5678;52.370;9.006;2023-02-28T09:39:45;0.30;;;0.30;;
11241;SDS011;5678;52.370;9.006;2023-02-28T09:42:18;0.30;;;0.30;;
11241;SDS011;5678;52.370;9.006;2023-02-28T09:44:52;0.47;;;0.47;;
11241;SDS011;5678;52.370;9.006;2023-02-28T09:47:23;0.50;;;0.50;;
11241;SDS011;5678;52.370;9.006;2023-02-28T09:49:57;0.30;;;0.30;;
11241;SDS011;5678;52.370;9.006;2023-02-28T09:52:30;0.30;;;0.30;;
11241;SDS011;5678;52.370;9.006;2023-02-28T09:55:00;0.53;;;0.53;;
11241;SDS011;5678;52.370;9.006;2023-02-28T09:57:45;0.30;;;0.30;;
11241;SDS011;5678;52.370;9.006;2023-02-28T10:00:16;0.40;;;0.40;;
11241;SDS011;5678;52.370;9.006;2023-02-28T10:02:49;0.30;;;0.30;;
11241;SDS011;5678;52.370;9.006;2023-02-28T10:05:32;0.40;;;0.40;;
11241;SDS011;5678;52.370;9.006;2023-02-28T10:08:05;0.40;;;0.40;;
11241;SDS011;5678;52.370;9.006;2023-02-28T10:10:40;0.33;;;0.33;;
11241;SDS011;5678;52.370;9.006;2023-02-28T10:13:19;0.40;;;0.40;;
11241;SDS011;5678;52.370;9.006;2023-02-28T10:15:55;0.40;;;0.40;;
11241;SDS011;5678;52.370;9.006;2023-02-28T10:18:27;0.50;;;0.50;;
11241;SDS011;5678;52.370;9.006;2023-02-28T10:20:59;0.30;;;0.30;;
11241;SDS011;5678;52.370;9.006;2023-02-28T10:23:28;0.40;;;0.40;;
11241;SDS011;5678;52.370;9.006;2023-02-28T10:26:01;0.30;;;0.30;;
11241;SDS011;5678;52.370;9.006;2023-02-28T10:28:38;0.40;;;0.40;;
11241;SDS011;5678;52.370;9.006;2023-02-28T10:31:09;0.40;;;0.40;;
11241;SDS011;5678;52.370;9.006;2023-02-28T10:33:41;0.50;;;0.50;;
11241;SDS011;5678;52.370;9.006;2023-02-28T10:36:10;0.40;;;0.40;;
11241;SDS011;5678;52.370;9.006;2023-02-28T10:38:43;0.43;;;0.43;;
11241;SDS011;5678;52.370;9.006;2023-02-28T10:41:12;1.27;;;1.27;;
11241;SDS011;5678;52.370;9.006;2023-02-28T10:43:42;0.50;;;0.50;;
11241;SDS011;5678;52.370;9.006;2023-02-28T10:46:14;0.53;;;0.53;;
11241;SDS011;5678;52.370;9.006;2023-02-28T10:49:00;0.43;;;0.43;;
11241;SDS011;5678;52.370;9.006;2023-02-28T10:51:34;0.40;;;0.40;;
11241;SDS011;5678;52.370;9.006;2023-02-28T10:54:04;0.37;;;0.37;;
11241;SDS011;5678;52.370;9.006;2023-02-28T10:56:32;0.40;;;0.40;;
11241;SDS011;5678;52.370;9.006;2023-02-28T10:59:02;0.43;;;0.43;;
11241;SDS011;5678;52.370;9.006;2023-02-28T11:01:49;0.50;;;0.50;;
11241;SDS011;5678;52.370;9.006;2023-02-28T11:04:19;0.30;;;0.30;;
11241;SDS011;5678;52.370;9.006;2023-02-28T11:07:04;0.30;;;0.30;;
11241;SDS011;5678;52.370;9.006;2023-02-28T11:09:34;0.40;;;0.40;;
11241;SDS011;5678;52.370;9.006;2023-02-28T11:12:05;0.40;;;0.40;;
11241;SDS011;5678;52.370;9.006;2023-02-28T11:14:36;0.47;;;0.47;;
11241;SDS011;5678;52.370;9.006;2023-02-28T11:17:18;0.30;;;0.30;;
11241;SDS011;5678;52.370;9.006;2023-02-28T11:19:49;0.43;;;0.43;;
11241;SDS011;5678;52.370;9.006;2023-02-28T11:22:19;0.30;;;0.30;;
11241;SDS011;5678;52.370;9.006;2023-02-28T11:24:50;0.30;;;0.30;;
11241;SDS011;5678;52.370;9.006;2023-02-28T11:30:22;0.50;;;0.50;;
11241;SDS011;5678;52.370;9.006;2023-02-28T11:32:56;0.43;;;0.43;;
11241;SDS011;5678;52.370;9.006;2023-02-28T11:35:26;0.30;;;0.30;;
11241;SDS011;5678;52.370;9.006;2023-02-28T11:37:57;0.40;;;0.40;;
11241;SDS011;5678;52.370;9.006;2023-02-28T11:40:29;0.43;;;0.43;;
11241;SDS011;5678;52.370;9.006;2023-02-28T11:43:12;0.40;;;0.40;;
11241;SDS011;5678;52.370;9.006;2023-02-28T11:45:54;0.50;;;0.50;;
11241;SDS011;5678;52.370;9.006;2023-02-28T11:48:37;0.40;;;0.40;;
11241;SDS011;5678;52.370;9.006;2023-02-28T11:51:15;0.50;;;0.50;;
11241;SDS011;5678;52.370;9.006;2023-02-28T11:53:55;0.30;;;0.30;;
11241;SDS011;5678;52.370;9.006;2023-02-28T11:56:33;0.50;;;0.50;;
11241;SDS011;5678;52.370;9.006;2023-02-28T11:59:10;0.40;;;0.40;;
11241;SDS011;5678;52.370;9.006;2023-02-28T12:05:01;0.50;;;0.50;;
11241;SDS011;5678;52.370;9.006;2023-02-28T12:07:45;0.50;;;0.50;;
11241;SDS011;5678;52.370;9.006;2023-02-28T12:10:24;0.40;;;0.40;;
11241;SDS011;5678;52.370;9.006;2023-02-28T12:13:01;0.40;;;0.40;;
11241;SDS011;5678;52.370;9.006;2023-02-28T12:15:41;0.50;;;0.50;;
11241;SDS011;5678;52.370;9.006;2023-02-28T12:18:47;0.40;;;0.40;;
11241;SDS011;5678;52.370;9.006;2023-02-28T12:21:29;0.30;;;0.30;;
11241;SDS011;5678;52.370;9.006;2023-02-28T12:27:02;0.40;;;0.40;;
11241;SDS011;5678;52.370;9.006;2023-02-28T12:29:37;0.43;;;0.43;;
11241;SDS011;5678;52.370;9.006;2023-02-28T12:32:13;0.53;;;0.53;;
11241;SDS011;5678;52.370;9.006;2023-02-28T12:34:48;0.33;;;0.33;;
11241;SDS011;5678;52.370;9.006;2023-02-28T12:37:21;0.40;;;0.40;;
11241;SDS011;5678;52.370;9.006;2023-02-28T12:39:54;0.40;;;0.40;;
11241;SDS011;5678;52.370;9.006;2023-02-28T12:42:32;0.30;;;0.30;;
11241;SDS011;5678;52.370;9.006;2023-02-28T12:45:04;0.40;;;0.40;;
11241;SDS011;5678;52.370;9.006;2023-02-28T12:47:38;0.50;;;0.50;;
11241;SDS011;5678;52.370;9.006;2023-02-28T12:50:09;0.40;;;0.40;;
11241;SDS011;5678;52.370;9.006;2023-02-28T12:52:41;0.40;;;0.40;;
11241;SDS011;5678;52.370;9.006;2023-02-28T12:55:18;0.30;;;0.30;;
11241;SDS011;5678;52.370;9.006;2023-02-28T12:57:53;0.30;;;0.30;;
11241;SDS011;5678;52.370;9.006;2023-02-28T13:00:30;0.40;;;0.40;;
11241;SDS011;5678;52.370;9.006;2023-02-28T13:03:15;0.40;;;0.40;;
11241;SDS011;5678;52.370;9.006;2023-02-28T13:06:05;0.47;;;0.47;;
11241;SDS011;5678;52.370;9.006;2023-02-28T13:11:39;0.40;;;0.40;;
11241;SDS011;5678;52.370;9.006;2023-02-28T13:14:18;0.40;;;0.40;;
11241;SDS011;5678;52.370;9.006;2023-02-28T13:17:02;0.40;;;0.40;;
11241;SDS011;5678;52.370;9.006;2023-02-28T13:19:38;0.50;;;0.50;;
11241;SDS011;5678;52.370;9.006;2023-02-28T13:22:15;0.40;;;0.40;;
11241;SDS011;5678;52.370;9.006;2023-02-28T13:24:48;0.40;;;0.40;;
11241;SDS011;5678;52.370;9.006;2023-02-28T13:30:49;0.40;;;0.40;;
11241;SDS011;5678;52.370;9.006;2023-02-28T13:33:27;0.40;;;0.40;;
11241;SDS011;5678;52.370;9.006;2023-02-28T13:38:51;0.40;;;0.40;;
11241;SDS011;5678;52.370;9.006;2023-02-28T13:44:17;0.40;;;0.40;;
11241;SDS011;5678;52.370;9.006;2023-02-28T13:49:49;0.30;;;0.30;;
11241;SDS011;5678;52.370;9.006;2023-02-28T13:52:20;0.40;;;0.40;;
11241;SDS011;5678;52.370;9.006;2023-02-28T13:54:53;0.37;;;0.37;;
11241;SDS011;5678;52.370;9.006;2023-02-28T13:57:44;0.50;;;0.50;;
11241;SDS011;5678;52.370;9.006;2023-02-28T14:00:30;0.50;;;0.50;;
11241;SDS011;5678;52.370;9.006;2023-02-28T14:03:14;0.40;;;0.40;;
11241;SDS011;5678;52.370;9.006;2023-02-28T14:08:35;0.40;;;0.40;;
11241;SDS011;5678;52.370;9.006;2023-02-28T14:11:04;0.53;;;0.53;;
11241;SDS011;5678;52.370;9.006;2023-02-28T14:13:41;0.30;;;0.30;;
11241;SDS011;5678;52.370;9.006;2023-02-28T14:16:13;0.30;;;0.30;;
11241;SDS011;5678;52.370;9.006;2023-02-28T14:18:47;0.30;;;0.30;;
11241;SDS011;5678;52.370;9.006;2023-02-28T14:21:21;0.40;;;0.40;;
11241;SDS011;5678;52.370;9.006;2023-02-28T14:26:57;0.30;;;0.30;;
11241;SDS011;5678;52.370;9.006;2023-02-28T14:29:47;0.40;;;0.40;;
11241;SDS011;5678;52.370;9.006;2023-02-28T14:32:43;0.43;;;0.43;;
11241;SDS011;5678;52.370;9.006;2023-02-28T14:35:21;0.40;;;0.40;;
11241;SDS011;5678;52.370;9.006;2023-02-28T14:38:12;0.40;;;0.40;;
11241;SDS011;5678;52.370;9.006;2023-02-28T14:40:44;0.30;;;0.30;;
11241;SDS011;5678;52.370;9.006;2023-02-28T14:43:19;0.47;;;0.47;;
11241;SDS011;5678;52.370;9.006;2023-02-28T14:45:51;0.30;;;0.30;;
11241;SDS011;5678;52.370;9.006;2023-02-28T14:48:22;0.30;;;0.30;;
11241;SDS011;5678;52.370;9.006;2023-02-28T14:50:52;0.40;;;0.40;;
11241;SDS011;5678;52.370;9.006;2023-02-28T14:53:23;0.30;;;0.30;;
11241;SDS011;5678;52.370;9.006;2023-02-28T14:55:54;0.53;;;0.53;;
11241;SDS011;5678;52.370;9.006;2023-02-28T14:58:23;0.40;;;0.40;;
11241;SDS011;5678;52.370;9.006;2023-02-28T15:00:55;0.30;;;0.30;;
11241;SDS011;5678;52.370;9.006;2023-02-28T15:03:29;0.30;;;0.30;;
11241;SDS011;5678;52.370;9.006;2023-02-28T15:05:59;0.40;;;0.40;;
11241;SDS011;5678;52.370;9.006;2023-02-28T15:08:29;0.40;;;0.40;;
11241;SDS011;5678;52.370;9.006;2023-02-28T15:11:02;0.50;;;0.50;;
11241;SDS011;5678;52.370;9.006;2023-02-28T15:13:34;0.40;;;0.40;;
11241;SDS011;5678;52.370;9.006;2023-02-28T15:16:07;0.40;;;0.40;;
11241;SDS011;5678;52.370;9.006;2023-02-28T15:18:42;0.37;;;0.37;;
11241;SDS011;5678;52.370;9.006;2023-02-28T15:21:14;0.30;;;0.30;;
11241;SDS011;5678;52.370;9.006;2023-02-28T15:23:45;0.40;;;0.40;;
11241;SDS011;5678;52.370;9.006;2023-02-28T15:26:16;0.40;;;0.40;;
11241;SDS011;5678;52.370;9.006;2023-02-28T15:28:48;0.50;;;0.50;;
11241;SDS011;5678;52.370;9.006;2023-02-28T15:31:22;0.40;;;0.40;;
11241;SDS011;5678;52.370;9.006;2023-02-28T15:33:54;0.90;;;0.90;;
11241;SDS011;5678;52.370;9.006;2023-02-28T15:36:24;0.30;;;0.30;;
11241;SDS011;5678;52.370;9.006;2023-02-28T15:38:54;0.40;;;0.40;;
11241;SDS011;5678;52.370;9.006;2023-02-28T15:41:35;0.30;;;0.30;;
11241;SDS011;5678;52.370;9.006;2023-02-28T15:44:22;0.40;;;0.40;;
11241;SDS011;5678;52.370;9.006;2023-02-28T15:46:55;0.30;;;0.30;;
11241;SDS011;5678;52.370;9.006;2023-02-28T15:49:27;0.30;;;0.30;;
11241;SDS011;5678;52.370;9.006;2023-02-28T15:52:00;0.37;;;0.37;;
11241;SDS011;5678;52.370;9.006;2023-02-28T15:54:28;0.30;;;0.30;;
11241;SDS011;5678;52.370;9.006;2023-02-28T15:57:02;0.47;;;0.47;;
11241;SDS011;5678;52.370;9.006;2023-02-28T15:59:32;0.30;;;0.30;;
11241;SDS011;5678;52.370;9.006;2023-02-28T16:02:14;0.50;;;0.50;;
11241;SDS011;5678;52.370;9.006;2023-02-28T16:04:58;0.40;;;0.40;;
11241;SDS011;5678;52.370;9.006;2023-02-28T16:07:42;0.30;;;0.30;;